createdAt,value
2022-10-05T00:03:38.020Z,100815.02
2022-10-05T00:06:24.718Z,100813.85
2022-10-05T00:09:49.927Z,100816.30
2022-10-05T00:12:35.035Z,100820.86
2022-10-05T00:15:39.787Z,100822.95
2022-10-05T00:18:25.733Z,100820.23
2022-10-05T00:21:53.636Z,100822.80
2022-10-05T00:24:52.318Z,100817.38
2022-10-05T00:27:58.353Z,100817.20
2022-10-05T00:31:00.838Z,100811.83
2022-10-05T00:33:32.447Z,100801.80
2022-10-05T00:36:26.711Z,100800.05
2022-10-05T00:39:36.135Z,100794.83
2022-10-05T00:43:24.928Z,100780.66
2022-10-05T00:46:18.039Z,100777.57
2022-10-05T00:49:34.141Z,100770.77
2022-10-05T00:53:20.591Z,100774.77
2022-10-05T00:56:55.693Z,100781.20
2022-10-05T01:00:16.872Z,100784.85
2022-10-05T01:03:06.110Z,100782.97
2022-10-05T01:06:12.471Z,100780.90
2022-10-05T01:09:22.615Z,100775.14
2022-10-05T01:12:07.835Z,100775.88
2022-10-05T01:15:22.851Z,100770.19
2022-10-05T01:18:30.902Z,100769.23
2022-10-05T01:21:29.943Z,100769.35
2022-10-05T01:24:46.861Z,100773.28
2022-10-05T01:28:13.046Z,100769.30
2022-10-05T01:31:33.028Z,100773.19
2022-10-05T01:34:20.928Z,100764.38
2022-10-05T01:37:50.951Z,100761.98
2022-10-05T01:41:15.054Z,100759.21
2022-10-05T01:44:52.688Z,100757.34
2022-10-05T01:48:00.135Z,100758.55
2022-10-05T01:51:13.127Z,100765.11
2022-10-05T01:54:37.261Z,100759.17
2022-10-05T01:58:07.207Z,100759.91
2022-10-05T02:01:12.241Z,100766.21
2022-10-05T02:03:57.768Z,100757.42
2022-10-05T02:07:25.537Z,100752.60
2022-10-05T02:10:31.571Z,100762.14
2022-10-05T02:13:45.390Z,100761.11
2022-10-05T02:17:11.727Z,100769.35
2022-10-05T02:20:11.201Z,100774.42
2022-10-05T02:22:58.406Z,100774.77
2022-10-05T02:25:58.320Z,100771.93
2022-10-05T02:29:18.296Z,100769.17
2022-10-05T02:32:21.619Z,100757.38
2022-10-05T02:35:01.159Z,100755.56
2022-10-05T02:38:27.928Z,100743.75
2022-10-05T02:41:33.203Z,100741.42
2022-10-05T02:44:59.337Z,100745.88
2022-10-05T02:47:59.391Z,100741.84
2022-10-05T02:50:45.887Z,100741.76
2022-10-05T02:54:11.248Z,100744.29
2022-10-05T02:57:34.743Z,100738.77
2022-10-05T03:00:55.132Z,100739.42
2022-10-05T03:04:31.561Z,100740.42
2022-10-05T03:08:22.636Z,100744.55
2022-10-05T03:12:42.527Z,100735.30
2022-10-05T03:15:54.253Z,100731.02
2022-10-05T03:18:41.832Z,100725.88
2022-10-05T03:22:12.898Z,100718.10
2022-10-05T03:25:11.111Z,100712.89
2022-10-05T03:28:16.175Z,100720.24
2022-10-05T03:31:28.896Z,100710.23
2022-10-05T03:34:41.514Z,100710.44
2022-10-05T03:37:43.308Z,100703.23
2022-10-05T03:40:24.664Z,100706.12
2022-10-05T03:43:35.860Z,100706.73
2022-10-05T03:46:42.040Z,100717.20
2022-10-05T03:49:58.879Z,100717.35
2022-10-05T03:52:56.322Z,100713.24
2022-10-05T03:55:57.388Z,100708.45
2022-10-05T03:58:39.892Z,100709.56
2022-10-05T04:01:22.680Z,100714.55
2022-10-05T04:04:08.090Z,100720.41
2022-10-05T04:07:23.884Z,100730.25
2022-10-05T04:09:57.813Z,100721.34
2022-10-05T04:12:54.157Z,100722.91
2022-10-05T04:15:45.706Z,100721.48
2022-10-05T04:18:47.228Z,100707.17
2022-10-05T04:21:24.213Z,100705.54
2022-10-05T04:24:10.186Z,100708.56
2022-10-05T04:27:23.409Z,100712.16
2022-10-05T04:30:19.119Z,100712.52
2022-10-05T04:32:59.850Z,100709.78
2022-10-05T04:36:00.036Z,100708.27
2022-10-05T04:39:13.309Z,100703.45
2022-10-05T04:42:12.319Z,100704.45
2022-10-05T04:45:08.841Z,100705.52
2022-10-05T04:47:51.623Z,100693.10
2022-10-05T04:50:58.550Z,100688.70
2022-10-05T04:53:50.815Z,100686.98
2022-10-05T04:56:44.204Z,100692.55
2022-10-05T04:59:34.942Z,100687.27
2022-10-05T05:02:21.218Z,100688.27
2022-10-05T05:05:27.101Z,100682.24
2022-10-05T05:08:40.806Z,100678.33
2022-10-05T05:11:46.403Z,100678.98
2022-10-05T05:14:48.601Z,100682.39
2022-10-05T05:17:46.128Z,100685.66
2022-10-05T05:20:57.543Z,100685.74
2022-10-05T05:23:37.775Z,100690.55
2022-10-05T05:26:39.065Z,100689.16
2022-10-05T05:29:30.471Z,100694.61
2022-10-05T05:32:21.024Z,100692.19
2022-10-05T05:35:09.158Z,100692.33
2022-10-05T05:37:50.145Z,100693.23
2022-10-05T05:40:27.459Z,100695.42
2022-10-05T05:43:16.696Z,100695.44
2022-10-05T05:46:12.281Z,100698.59
2022-10-05T05:48:46.564Z,100703.83
2022-10-05T05:51:39.659Z,100703.29
2022-10-05T05:54:23.266Z,100712.63
2022-10-05T05:57:24.864Z,100718.14
2022-10-05T06:00:07.724Z,100717.23
2022-10-05T06:02:48.522Z,100716.83
2022-10-05T06:05:40.753Z,100715.92
2022-10-05T06:08:34.167Z,100717.48
2022-10-05T06:11:21.177Z,100717.34
2022-10-05T06:13:52.814Z,100713.03
2022-10-05T06:16:46.212Z,100715.79
2022-10-05T06:19:20.509Z,100704.95
2022-10-05T06:22:03.656Z,100709.79
2022-10-05T06:25:05.833Z,100710.73
2022-10-05T06:27:37.612Z,100716.52
2022-10-05T06:30:15.315Z,100716.55
2022-10-05T06:32:50.633Z,100719.30
2022-10-05T06:35:48.357Z,100725.50
2022-10-05T06:38:28.752Z,100722.61
2022-10-05T06:41:27.201Z,100722.92
2022-10-05T06:44:14.978Z,100726.04
2022-10-05T06:47:00.819Z,100726.19
2022-10-05T06:50:11.828Z,100729.73
2022-10-05T06:53:24.534Z,100727.80
2022-10-05T06:55:59.435Z,100736.13
2022-10-05T06:58:50.632Z,100732.91
2022-10-05T07:01:31.728Z,100736.54
2022-10-05T07:04:18.690Z,100730.16
2022-10-05T07:06:55.357Z,100728.95
2022-10-05T07:09:50.046Z,100725.92
2022-10-05T07:12:31.395Z,100725.32
2022-10-05T07:15:06.295Z,100726.48
2022-10-05T07:18:09.147Z,100725.41
2022-10-05T07:20:53.205Z,100723.27
2022-10-05T07:24:03.156Z,100711.74
2022-10-05T07:26:37.777Z,100731.41
2022-10-05T07:29:27.986Z,100733.91
2022-10-05T07:32:24.047Z,100733.98
2022-10-05T07:35:07.958Z,100738.29
2022-10-05T07:37:55.407Z,100737.69
2022-10-05T07:40:38.078Z,100737.27
2022-10-05T07:43:06.586Z,100737.83
2022-10-05T07:45:49.128Z,100733.27
2022-10-05T07:48:33.284Z,100737.24
2022-10-05T07:51:17.653Z,100733.83
2022-10-05T07:53:58.607Z,100726.05
2022-10-05T07:56:35.077Z,100724.48
2022-10-05T07:59:14.125Z,100728.08
2022-10-05T08:01:52.088Z,100723.72
2022-10-05T08:04:27.823Z,100722.28
2022-10-05T08:07:02.478Z,100716.80
2022-10-05T08:09:45.795Z,100712.19
2022-10-05T08:12:53.932Z,100713.57
2022-10-05T08:15:27.619Z,100709.62
2022-10-05T08:18:03.126Z,100709.05
2022-10-05T08:20:44.009Z,100708.27
2022-10-05T08:23:25.229Z,100708.89
2022-10-05T08:26:38.092Z,100706.31
2022-10-05T08:29:33.599Z,100702.20
2022-10-05T08:32:28.176Z,100701.75
2022-10-05T08:35:08.510Z,100706.98
2022-10-05T08:37:42.892Z,100710.54
2022-10-05T08:44:11.708Z,100703.95
2022-10-05T08:47:18.310Z,100707.08
2022-10-05T08:50:07.449Z,100706.86
2022-10-05T08:53:02.914Z,100696.55
2022-10-05T08:55:50.144Z,100702.20
2022-10-05T08:58:43.733Z,100698.56
2022-10-05T09:01:33.267Z,100699.09
2022-10-05T09:04:36.802Z,100704.54
2022-10-05T09:07:10.980Z,100698.77
2022-10-05T09:10:21.866Z,100698.27
2022-10-05T09:13:14.532Z,100693.73
2022-10-05T09:15:48.365Z,100694.98
2022-10-05T09:18:58.086Z,100697.51
2022-10-05T09:21:56.723Z,100698.88
2022-10-05T09:24:48.801Z,100702.83
2022-10-05T09:27:17.983Z,100702.98
2022-10-05T09:30:05.076Z,100700.19
2022-10-05T09:33:07.474Z,100706.61
2022-10-05T09:36:03.486Z,100708.59
2022-10-05T09:38:46.460Z,100709.52
2022-10-05T09:41:56.792Z,100713.14
2022-10-05T09:44:43.866Z,100707.92
2022-10-05T09:47:42.203Z,100710.15
2022-10-05T09:50:45.324Z,100700.53
2022-10-05T09:54:00.307Z,100694.85
2022-10-05T09:57:05.526Z,100692.62
2022-10-05T10:00:09.311Z,100690.55
2022-10-05T10:03:09.675Z,100687.05
2022-10-05T10:05:57.655Z,100684.63
2022-10-05T10:08:40.042Z,100678.80
2022-10-05T10:11:26.844Z,100672.00
2022-10-05T10:14:17.538Z,100674.30
2022-10-05T10:17:42.080Z,100675.64
2022-10-05T10:20:31.103Z,100671.23
2022-10-05T10:23:16.001Z,100661.37
2022-10-05T10:26:06.187Z,100661.41
2022-10-05T10:29:00.508Z,100661.07
2022-10-05T10:32:02.405Z,100659.91
2022-10-05T10:34:58.239Z,100654.70
2022-10-05T10:37:59.101Z,100649.91
2022-10-05T10:40:39.045Z,100648.71
2022-10-05T10:43:26.622Z,100646.87
2022-10-05T10:46:05.145Z,100648.30
2022-10-05T10:49:35.680Z,100656.23
2022-10-05T10:52:20.457Z,100654.75
2022-10-05T10:55:04.538Z,100655.40
2022-10-05T10:57:48.065Z,100655.52
2022-10-05T11:00:17.634Z,100650.79
2022-10-05T11:03:05.627Z,100647.29
2022-10-05T11:05:56.300Z,100648.45
2022-10-05T11:08:33.419Z,100644.82
2022-10-05T11:11:24.417Z,100644.23
2022-10-05T11:14:17.157Z,100638.95
2022-10-05T11:17:20.500Z,100638.48
2022-10-05T11:20:08.711Z,100634.59
2022-10-05T11:22:51.895Z,100626.30
2022-10-05T11:26:01.956Z,100620.48
2022-10-05T11:28:58.478Z,100611.45
2022-10-05T11:32:04.590Z,100610.99
2022-10-05T11:34:32.685Z,100608.25
2022-10-05T11:37:19.217Z,100602.98
2022-10-05T11:40:18.537Z,100606.23
2022-10-05T11:43:09.116Z,100597.17
2022-10-05T11:46:06.415Z,100593.27
2022-10-05T11:49:10.396Z,100582.98
2022-10-05T11:51:43.782Z,100581.68
2022-10-05T11:54:52.089Z,100575.42
2022-10-05T11:57:33.050Z,100571.98
2022-10-05T12:00:12.404Z,100573.21
2022-10-05T12:03:18.205Z,100567.36
2022-10-05T12:06:01.402Z,100564.88
2022-10-05T12:08:47.554Z,100566.41
2022-10-05T12:11:33.951Z,100561.06
2022-10-05T12:14:21.678Z,100561.35
2022-10-05T12:17:20.047Z,100556.80
2022-10-05T12:23:53.167Z,100551.72
2022-10-05T12:26:42.434Z,100552.75
2022-10-05T12:29:39.715Z,100546.91
2022-10-05T12:32:18.446Z,100546.60
2022-10-05T12:35:01.907Z,100545.34
2022-10-05T12:38:12.892Z,100547.53
2022-10-05T12:40:47.848Z,100544.17
2022-10-05T12:43:36.842Z,100546.09
2022-10-05T12:46:46.201Z,100548.82
2022-10-05T12:49:25.012Z,100547.84
2022-10-05T12:52:01.165Z,100545.20
2022-10-05T12:54:39.657Z,100536.73
2022-10-05T12:57:25.347Z,100539.35
2022-10-05T13:00:21.774Z,100541.45
2022-10-05T13:03:00.391Z,100538.11
2022-10-05T13:05:33.301Z,100534.59
2022-10-05T13:08:13.379Z,100530.36
2022-10-05T13:11:01.161Z,100526.58
2022-10-05T13:13:50.768Z,100524.96
2022-10-05T13:16:46.109Z,100525.17
2022-10-05T13:19:29.601Z,100522.25
2022-10-05T13:22:21.019Z,100515.60
2022-10-05T13:25:44.798Z,100518.94
2022-10-05T13:28:30.427Z,100519.31
2022-10-05T13:31:07.371Z,100523.55
2022-10-05T13:33:56.728Z,100520.45
2022-10-05T13:37:04.408Z,100515.17
2022-10-05T13:39:38.766Z,100511.48
2022-10-05T13:42:15.749Z,100510.91
2022-10-05T13:44:48.347Z,100511.98
2022-10-05T13:47:51.356Z,100507.76
2022-10-05T13:50:28.523Z,100504.11
2022-10-05T13:53:24.146Z,100502.55
2022-10-05T13:56:02.361Z,100502.52
2022-10-05T13:58:43.336Z,100503.98
2022-10-05T14:01:41.866Z,100506.34
2022-10-05T14:04:24.848Z,100505.27
2022-10-05T14:06:54.189Z,100502.36
2022-10-05T14:09:25.625Z,100503.58
2022-10-05T14:12:19.257Z,100506.98
2022-10-05T14:14:53.883Z,100503.44
2022-10-05T14:17:33.975Z,100507.39
2022-10-05T14:20:16.243Z,100506.39
2022-10-05T14:22:49.175Z,100503.60
2022-10-05T14:25:21.939Z,100493.30
2022-10-05T14:27:59.663Z,100493.31
2022-10-05T14:30:30.561Z,100490.98
2022-10-05T14:33:04.732Z,100492.55
2022-10-05T14:35:54.332Z,100486.63
2022-10-05T14:38:35.248Z,100489.29
2022-10-05T14:41:20.034Z,100483.86
2022-10-05T14:43:53.153Z,100486.56
2022-10-05T14:46:29.732Z,100485.57
2022-10-05T14:49:21.196Z,100483.08
2022-10-05T14:51:51.348Z,100484.52
2022-10-05T14:54:59.311Z,100485.31
2022-10-05T14:57:56.491Z,100481.60
2022-10-05T15:00:26.145Z,100484.23
2022-10-05T15:03:20.234Z,100478.63
2022-10-05T15:05:54.538Z,100475.56
2022-10-05T15:09:12.466Z,100468.73
2022-10-05T15:11:56.856Z,100465.27
2022-10-05T15:14:33.134Z,100464.07
2022-10-05T15:17:27.011Z,100462.20
2022-10-05T15:20:10.609Z,100470.76
2022-10-05T15:23:26.262Z,100466.80
2022-10-05T15:26:17.691Z,100468.34
2022-10-05T15:28:54.423Z,100467.29
2022-10-05T15:31:30.991Z,100468.13
2022-10-05T15:34:12.911Z,100460.06
2022-10-05T15:36:45.625Z,100461.96
2022-10-05T15:39:35.154Z,100462.16
2022-10-05T15:42:16.676Z,100457.88
2022-10-05T15:45:09.126Z,100454.10
2022-10-05T15:47:45.809Z,100454.83
2022-10-05T15:50:26.449Z,100458.14
2022-10-05T15:53:12.175Z,100457.85
2022-10-05T15:56:01.616Z,100464.54
2022-10-05T15:58:53.637Z,100460.58
2022-10-05T16:01:41.198Z,100462.66
2022-10-05T16:04:23.398Z,100467.02
2022-10-05T16:07:18.449Z,100469.76
2022-10-05T16:10:11.281Z,100462.86
2022-10-05T16:13:04.483Z,100467.04
2022-10-05T16:15:50.210Z,100468.38
2022-10-05T16:18:47.235Z,100469.29
2022-10-05T16:21:32.736Z,100471.76
2022-10-05T16:24:27.198Z,100472.41
2022-10-05T16:27:00.825Z,100468.77
2022-10-05T16:29:45.946Z,100470.19
2022-10-05T16:32:30.368Z,100471.92
2022-10-05T16:35:11.682Z,100472.43
2022-10-05T16:38:02.696Z,100471.64
2022-10-05T16:40:41.776Z,100476.42
2022-10-05T16:43:09.950Z,100477.67
2022-10-05T16:45:55.395Z,100474.17
2022-10-05T16:48:37.032Z,100478.02
2022-10-05T16:51:24.579Z,100479.23
2022-10-05T16:53:55.973Z,100475.69
2022-10-05T16:56:32.269Z,100476.83
2022-10-05T16:59:18.614Z,100475.54
2022-10-05T17:02:15.151Z,100486.28
2022-10-05T17:05:05.945Z,100491.58
2022-10-05T17:07:47.679Z,100496.86
2022-10-05T17:10:36.215Z,100499.98
2022-10-05T17:13:23.747Z,100499.23
2022-10-05T17:16:15.083Z,100499.23
2022-10-05T17:19:10.184Z,100496.55
2022-10-05T17:21:50.860Z,100497.99
2022-10-05T17:24:32.427Z,100497.73
2022-10-05T17:28:05.547Z,100495.06
2022-10-05T17:30:48.545Z,100497.09
2022-10-05T17:33:23.500Z,100495.27
2022-10-05T17:35:58.759Z,100496.48
2022-10-05T17:38:36.221Z,100494.09
2022-10-05T17:41:19.144Z,100489.30
2022-10-05T17:44:21.689Z,100482.78
2022-10-05T17:46:50.978Z,100481.98
2022-10-05T17:49:38.407Z,100482.09
2022-10-05T17:52:45.364Z,100478.43
2022-10-05T17:55:30.328Z,100482.74
2022-10-05T17:58:18.184Z,100476.95
2022-10-05T18:00:59.862Z,100476.10
2022-10-05T18:03:52.023Z,100477.05
2022-10-05T18:06:34.044Z,100475.15
2022-10-05T18:09:20.681Z,100476.58
2022-10-05T18:12:24.078Z,100472.02
2022-10-05T18:15:07.595Z,100467.73
2022-10-05T18:17:53.217Z,100470.67
2022-10-05T18:20:34.732Z,100469.70
2022-10-05T18:23:11.414Z,100473.32
2022-10-05T18:26:04.317Z,100473.66
2022-10-05T18:29:14.154Z,100472.05
2022-10-05T18:32:00.456Z,100472.06
2022-10-05T18:34:38.689Z,100474.42
2022-10-05T18:37:37.294Z,100472.19
2022-10-05T18:40:27.060Z,100472.48
2022-10-05T18:43:22.834Z,100474.89
2022-10-05T18:46:12.908Z,100471.52
2022-10-05T18:48:47.101Z,100468.55
2022-10-05T18:51:45.543Z,100468.00
2022-10-05T18:55:07.184Z,100463.46
2022-10-05T18:57:38.878Z,100466.02
2022-10-05T19:00:32.113Z,100470.80
2022-10-05T19:03:18.762Z,100464.01
2022-10-05T19:05:59.123Z,100464.84
2022-10-05T19:09:30.610Z,100469.49
2022-10-05T19:12:12.205Z,100468.60
2022-10-05T19:14:52.053Z,100469.67
2022-10-05T19:17:41.878Z,100468.33
2022-10-05T19:20:34.035Z,100471.55
2022-10-05T19:23:27.906Z,100474.59
2022-10-05T19:26:13.777Z,100470.88
2022-10-05T19:29:01.587Z,100470.66
2022-10-05T19:31:40.883Z,100467.48
2022-10-05T19:34:33.317Z,100465.98
2022-10-05T19:37:19.686Z,100462.80
2022-10-05T19:39:59.174Z,100463.83
2022-10-05T19:43:01.935Z,100468.43
2022-10-05T19:45:43.009Z,100466.30
2022-10-05T19:48:27.633Z,100473.61
2022-10-05T19:50:58.894Z,100474.21
2022-10-05T19:53:31.158Z,100466.71
2022-10-05T19:56:53.923Z,100468.04
2022-10-05T19:59:33.471Z,100472.21
2022-10-05T20:02:05.991Z,100473.73
2022-10-05T20:04:41.112Z,100479.30
2022-10-05T20:07:17.199Z,100479.84
2022-10-05T20:10:00.751Z,100475.13
2022-10-05T20:12:51.683Z,100483.98
2022-10-05T20:15:42.049Z,100477.42
2022-10-05T20:18:59.893Z,100485.01
2022-10-05T20:21:43.015Z,100485.91
2022-10-05T20:24:17.671Z,100486.41
2022-10-05T20:27:06.989Z,100496.32
2022-10-05T20:29:44.401Z,100501.31
2022-10-05T20:32:18.012Z,100500.25
2022-10-05T20:34:50.626Z,100506.77
2022-10-05T20:37:20.643Z,100507.16
2022-10-05T20:39:51.707Z,100507.42
2022-10-05T20:42:21.300Z,100511.52
2022-10-05T20:44:56.726Z,100518.43
2022-10-05T20:47:30.397Z,100521.21
2022-10-05T20:49:58.749Z,100520.81
2022-10-05T20:52:31.548Z,100521.84
2022-10-05T20:55:02.040Z,100523.06
2022-10-05T20:57:30.225Z,100523.19
2022-10-05T20:59:58.647Z,100529.60
2022-10-05T21:02:29.305Z,100526.49
2022-10-05T21:04:57.960Z,100522.50
2022-10-05T21:07:29.508Z,100526.24
2022-10-05T21:09:59.204Z,100527.13
2022-10-05T21:12:30.524Z,100527.94
2022-10-05T21:15:01.600Z,100531.38
2022-10-05T21:17:31.137Z,100534.02
2022-10-05T21:20:00.403Z,100530.79
2022-10-05T21:22:31.831Z,100534.70
2022-10-05T21:25:08.869Z,100537.80
2022-10-05T21:27:37.405Z,100540.92
2022-10-05T21:30:06.404Z,100545.39
2022-10-05T21:32:44.402Z,100547.42
2022-10-05T21:35:16.707Z,100557.89
2022-10-05T21:37:45.262Z,100562.82
2022-10-05T21:40:13.480Z,100567.89
2022-10-05T21:42:44.655Z,100568.34
2022-10-05T21:45:16.855Z,100567.08
2022-10-05T21:47:48.108Z,100574.89
2022-10-05T21:50:19.819Z,100573.89
2022-10-05T21:52:59.905Z,100578.64
2022-10-05T21:55:29.250Z,100583.59
2022-10-05T21:58:01.060Z,100581.67
2022-10-05T22:00:29.096Z,100585.76
2022-10-05T22:02:58.032Z,100587.44
2022-10-05T22:05:25.939Z,100593.89
2022-10-05T22:07:54.929Z,100594.12
2022-10-05T22:10:23.354Z,100593.94
2022-10-05T22:12:51.830Z,100599.09
2022-10-05T22:15:20.604Z,100598.54
2022-10-05T22:17:53.489Z,100604.06
2022-10-05T22:20:23.419Z,100608.45
2022-10-05T22:22:53.919Z,100613.25
2022-10-05T22:25:22.632Z,100607.38
2022-10-05T22:27:50.894Z,100610.70
2022-10-05T22:30:20.203Z,100612.85
2022-10-05T22:32:56.370Z,100616.05
2022-10-05T22:35:25.130Z,100610.96
2022-10-05T22:37:57.428Z,100612.14
2022-10-05T22:40:28.048Z,100614.39
2022-10-05T22:42:59.898Z,100620.36
2022-10-05T22:45:32.733Z,100621.41
2022-10-05T22:48:04.469Z,100624.23
2022-10-05T22:50:45.296Z,100629.40
2022-10-05T22:53:16.360Z,100627.33
2022-10-05T22:55:48.989Z,100632.21
2022-10-05T22:58:22.463Z,100631.23
2022-10-05T23:00:58.962Z,100634.41
2022-10-05T23:03:31.370Z,100633.88
2022-10-05T23:06:20.053Z,100632.05
2022-10-05T23:08:48.311Z,100633.31
2022-10-05T23:11:30.860Z,100630.83
2022-10-05T23:14:04.276Z,100638.97
2022-10-05T23:16:33.342Z,100644.48
2022-10-05T23:19:04.685Z,100646.90
2022-10-05T23:21:32.928Z,100643.13
2022-10-05T23:24:05.265Z,100645.14
2022-10-05T23:26:40.566Z,100650.88
2022-10-05T23:29:09.572Z,100647.02
2022-10-05T23:31:40.038Z,100648.98
2022-10-05T23:34:14.187Z,100650.98
2022-10-05T23:36:42.519Z,100654.45
2022-10-05T23:39:20.932Z,100642.95
2022-10-05T23:41:49.387Z,100653.26
2022-10-05T23:44:23.617Z,100653.11
2022-10-05T23:46:55.244Z,100654.36
2022-10-05T23:49:26.545Z,100658.59
2022-10-05T23:51:54.753Z,100655.08
2022-10-05T23:54:25.592Z,100659.96
2022-10-05T23:56:56.521Z,100658.71
2022-10-05T23:59:28.393Z,100655.49
